createdAt,value
2017-01-26T04:00:35.507Z,0
2017-01-26T04:01:01.064Z,0
2017-01-26T04:01:26.623Z,0
2017-01-26T04:01:52.242Z,0
2017-01-26T04:02:17.911Z,0
2017-01-26T04:02:43.469Z,0
2017-01-26T04:03:09.031Z,0
2017-01-26T04:03:34.619Z,0
2017-01-26T04:04:00.194Z,0
2017-01-26T04:04:25.743Z,0
2017-01-26T04:04:51.301Z,0
2017-01-26T04:05:16.840Z,0
2017-01-26T04:05:43.103Z,0
2017-01-26T04:06:08.786Z,0
2017-01-26T04:06:34.324Z,0
2017-01-26T04:06:59.896Z,0
2017-01-26T04:07:25.458Z,0
2017-01-26T04:07:51.020Z,0
2017-01-26T04:08:16.600Z,0
2017-01-26T04:08:42.173Z,0
2017-01-26T04:09:07.741Z,0
2017-01-26T04:09:33.307Z,0
2017-01-26T04:09:58.897Z,0
2017-01-26T04:10:24.472Z,0
2017-01-26T04:10:50.023Z,0
2017-01-26T04:11:15.580Z,0
2017-01-26T04:11:41.183Z,0
2017-01-26T04:12:07.451Z,0
2017-01-26T04:12:33.050Z,0
2017-01-26T04:12:58.599Z,0
2017-01-26T04:13:24.303Z,0
2017-01-26T04:13:50.092Z,0
2017-01-26T04:14:15.748Z,0
2017-01-26T04:14:41.962Z,0
2017-01-26T04:15:07.509Z,0
2017-01-26T04:15:33.070Z,0
2017-01-26T04:15:58.639Z,0
2017-01-26T04:16:24.242Z,0
2017-01-26T04:16:49.819Z,0
2017-01-26T04:17:15.375Z,0
2017-01-26T04:17:41.009Z,0
2017-01-26T04:18:06.634Z,0
2017-01-26T04:18:32.193Z,0
2017-01-26T04:18:57.762Z,0
2017-01-26T04:19:23.453Z,0
2017-01-26T04:19:49.023Z,0
2017-01-26T04:20:14.594Z,0
2017-01-26T04:20:40.165Z,0
2017-01-26T04:21:05.810Z,0
2017-01-26T04:21:31.412Z,0
2017-01-26T04:21:57.001Z,0
2017-01-26T04:22:22.703Z,0
2017-01-26T04:22:48.270Z,0
2017-01-26T04:23:13.822Z,0
2017-01-26T04:23:39.394Z,0
2017-01-26T04:24:05.030Z,0
2017-01-26T04:24:30.604Z,0
2017-01-26T04:24:56.193Z,0
2017-01-26T04:25:21.765Z,0
2017-01-26T04:25:47.316Z,0
2017-01-26T04:26:12.870Z,0
2017-01-26T04:26:38.434Z,0
2017-01-26T04:27:04.044Z,0
2017-01-26T04:27:29.602Z,0
2017-01-26T04:27:55.165Z,0
2017-01-26T04:28:20.776Z,0
2017-01-26T04:28:46.432Z,0
2017-01-26T04:29:12.007Z,0
2017-01-26T04:29:37.575Z,0
2017-01-26T04:30:03.238Z,0
2017-01-26T04:30:28.806Z,0
2017-01-26T04:30:54.376Z,0
2017-01-26T04:31:19.940Z,0
2017-01-26T04:31:45.563Z,0
2017-01-26T04:32:11.218Z,0
2017-01-26T04:32:36.766Z,0
2017-01-26T04:33:02.457Z,0
2017-01-26T04:33:28.031Z,0
2017-01-26T04:33:53.637Z,0
2017-01-26T04:34:19.204Z,0
2017-01-26T04:34:44.771Z,0
2017-01-26T04:35:10.342Z,0
2017-01-26T04:35:36.043Z,0
2017-01-26T04:36:01.621Z,0
2017-01-26T04:36:27.177Z,0
2017-01-26T04:36:52.799Z,0
2017-01-26T04:37:18.485Z,0
2017-01-26T04:37:44.055Z,0
2017-01-26T04:38:09.624Z,0
2017-01-26T04:38:35.224Z,0
2017-01-26T04:39:00.844Z,0
2017-01-26T04:39:26.408Z,0
2017-01-26T04:39:51.973Z,0
2017-01-26T04:40:17.591Z,0
2017-01-26T04:40:43.166Z,0
2017-01-26T04:41:08.822Z,0
2017-01-26T04:41:34.393Z,0
2017-01-26T04:41:59.942Z,0
2017-01-26T04:42:25.504Z,0
2017-01-26T04:42:51.059Z,0
2017-01-26T04:43:16.632Z,0
2017-01-26T04:43:42.185Z,0
2017-01-26T04:44:07.744Z,0
2017-01-26T04:44:33.315Z,0
2017-01-26T04:44:58.940Z,0
2017-01-26T04:45:24.535Z,0
2017-01-26T04:45:50.177Z,0
2017-01-26T04:46:15.729Z,0
2017-01-26T04:46:41.312Z,0
2017-01-26T04:47:06.911Z,0
2017-01-26T04:47:32.511Z,0
2017-01-26T04:47:58.094Z,0
2017-01-26T04:48:23.663Z,0
2017-01-26T04:48:49.235Z,0
2017-01-26T04:49:14.815Z,0
2017-01-26T04:49:40.370Z,0
2017-01-26T04:50:05.918Z,0
2017-01-26T04:50:31.631Z,0
2017-01-26T04:50:57.201Z,0
2017-01-26T04:51:22.764Z,0
2017-01-26T04:51:48.332Z,0
2017-01-26T04:52:13.975Z,0
2017-01-26T04:52:39.607Z,0
2017-01-26T04:53:05.242Z,0
2017-01-26T04:53:30.828Z,0
2017-01-26T04:53:56.387Z,0
2017-01-26T04:54:21.957Z,0
2017-01-26T04:54:47.539Z,0
2017-01-26T04:55:13.110Z,0
2017-01-26T04:55:38.675Z,0
2017-01-26T04:56:04.222Z,0
2017-01-26T04:56:29.786Z,0
2017-01-26T04:56:55.410Z,0
2017-01-26T04:57:20.964Z,0
2017-01-26T04:57:46.516Z,0
2017-01-26T04:58:12.100Z,0
2017-01-26T04:58:37.770Z,0
2017-01-26T04:59:03.326Z,0
2017-01-26T04:59:28.876Z,0
2017-01-26T04:59:54.440Z,0
2017-01-26T05:00:20.001Z,0
2017-01-26T05:00:45.569Z,0
2017-01-26T05:01:11.130Z,0
2017-01-26T05:01:36.733Z,0
2017-01-26T05:02:02.298Z,0
2017-01-26T05:02:28.169Z,0
2017-01-26T05:02:53.749Z,0
2017-01-26T05:03:19.317Z,0
2017-01-26T05:03:44.969Z,0
2017-01-26T05:04:10.607Z,0
2017-01-26T05:04:36.159Z,0
2017-01-26T05:05:01.725Z,0
2017-01-26T05:05:27.310Z,0
2017-01-26T05:05:52.871Z,0
2017-01-26T05:06:18.433Z,0
2017-01-26T05:06:44.004Z,0
2017-01-26T05:07:09.570Z,0
2017-01-26T05:07:35.198Z,0
2017-01-26T05:08:00.766Z,0
2017-01-26T05:08:26.327Z,0
2017-01-26T05:08:51.901Z,0
2017-01-26T05:09:17.479Z,0
2017-01-26T05:09:43.063Z,0
2017-01-26T05:10:08.645Z,0
2017-01-26T05:10:34.197Z,0
2017-01-26T05:10:59.757Z,0
2017-01-26T05:11:25.394Z,0
2017-01-26T05:11:50.976Z,0
2017-01-26T05:12:16.545Z,0
2017-01-26T05:12:42.114Z,0
2017-01-26T05:13:07.738Z,0
2017-01-26T05:13:33.325Z,0
2017-01-26T05:13:58.908Z,0
2017-01-26T05:14:24.466Z,0
2017-01-26T05:14:50.026Z,0
2017-01-26T05:15:15.587Z,0
2017-01-26T05:15:41.152Z,0
2017-01-26T05:16:06.722Z,0
2017-01-26T05:16:32.356Z,0
2017-01-26T05:16:57.945Z,0
2017-01-26T05:17:23.514Z,0
2017-01-26T05:17:49.106Z,0
2017-01-26T05:18:14.745Z,0
2017-01-26T05:18:40.316Z,0
2017-01-26T05:19:05.922Z,0
2017-01-26T05:19:32.468Z,0
2017-01-26T05:19:57.166Z,0
2017-01-26T05:20:22.734Z,0
2017-01-26T05:20:48.318Z,0
2017-01-26T05:21:13.893Z,0
2017-01-26T05:21:39.459Z,0
2017-01-26T05:22:05.041Z,0
2017-01-26T05:22:30.710Z,0
2017-01-26T05:22:56.280Z,0
2017-01-26T05:23:21.832Z,0
2017-01-26T05:23:47.548Z,0
2017-01-26T05:24:13.132Z,0
2017-01-26T05:24:38.701Z,0
2017-01-26T05:25:04.264Z,0
2017-01-26T05:25:29.834Z,0
2017-01-26T05:25:55.407Z,0
2017-01-26T05:26:21.101Z,0
2017-01-26T05:26:46.673Z,0
2017-01-26T05:27:12.272Z,0
2017-01-26T05:27:37.846Z,0
2017-01-26T05:28:03.515Z,0
2017-01-26T05:28:29.142Z,0
2017-01-26T05:28:54.713Z,0
2017-01-26T05:29:20.315Z,0
2017-01-26T05:29:45.885Z,0
2017-01-26T05:30:11.437Z,0
2017-01-26T05:30:37.013Z,0
2017-01-26T05:31:02.662Z,0
2017-01-26T05:31:28.235Z,0
2017-01-26T05:31:53.806Z,0
2017-01-26T05:32:19.441Z,0
2017-01-26T05:32:45.027Z,0
2017-01-26T05:33:10.577Z,0
2017-01-26T05:33:36.146Z,0
2017-01-26T05:34:01.710Z,0
2017-01-26T05:34:27.257Z,0
2017-01-26T05:34:52.886Z,0
2017-01-26T05:35:18.498Z,0
2017-01-26T05:35:44.013Z,0
2017-01-26T05:36:09.576Z,0
2017-01-26T05:36:35.147Z,0
2017-01-26T05:37:00.714Z,0
2017-01-26T05:37:26.301Z,0
2017-01-26T05:37:51.833Z,0
2017-01-26T05:38:17.498Z,0
2017-01-26T05:38:43.067Z,0
2017-01-26T05:39:08.638Z,0
2017-01-26T05:39:34.207Z,0
2017-01-26T05:39:59.783Z,0
2017-01-26T05:40:25.399Z,0
2017-01-26T05:40:50.940Z,0
2017-01-26T05:41:16.501Z,0
2017-01-26T05:41:42.066Z,0
2017-01-26T05:42:07.675Z,0
2017-01-26T05:42:33.256Z,0
2017-01-26T05:42:59.365Z,0
2017-01-26T05:43:24.937Z,0
2017-01-26T05:43:50.496Z,0
2017-01-26T05:44:16.078Z,0
2017-01-26T05:44:41.664Z,0
2017-01-26T05:45:07.224Z,0
2017-01-26T05:45:32.793Z,0
2017-01-26T05:45:58.365Z,0
2017-01-26T05:46:23.938Z,0
2017-01-26T05:46:49.608Z,0
2017-01-26T05:47:15.193Z,0
2017-01-26T05:47:40.769Z,0
2017-01-26T05:48:06.324Z,0
2017-01-26T05:48:31.887Z,0
2017-01-26T05:48:57.452Z,0
2017-01-26T05:49:23.018Z,0
2017-01-26T05:49:48.587Z,0
2017-01-26T05:50:14.150Z,0
2017-01-26T05:50:39.704Z,0
2017-01-26T05:51:05.329Z,0
2017-01-26T05:51:30.860Z,0
2017-01-26T05:51:56.438Z,20
2017-01-26T05:52:22.068Z,16
2017-01-26T05:52:47.625Z,16
2017-01-26T05:53:13.195Z,20
2017-01-26T05:53:38.758Z,20
2017-01-26T05:54:04.332Z,20
2017-01-26T05:54:29.973Z,20
2017-01-26T05:54:55.508Z,20
2017-01-26T05:55:21.062Z,16
2017-01-26T05:55:46.698Z,20
2017-01-26T05:56:12.320Z,0
2017-01-26T05:56:37.886Z,0
2017-01-26T05:57:03.488Z,0
2017-01-26T05:57:29.155Z,0
2017-01-26T05:57:54.729Z,0
2017-01-26T05:58:20.285Z,0
2017-01-26T05:58:45.866Z,0
2017-01-26T05:59:11.500Z,0
2017-01-26T05:59:36.994Z,0
2017-01-26T06:00:02.708Z,0
2017-01-26T06:00:28.275Z,0
2017-01-26T06:00:53.839Z,0
2017-01-26T06:01:19.416Z,0
2017-01-26T06:01:44.997Z,0
2017-01-26T06:02:10.568Z,0
2017-01-26T06:02:36.123Z,0
2017-01-26T06:03:01.700Z,0
2017-01-26T06:03:27.301Z,0
2017-01-26T06:03:52.897Z,0
2017-01-26T06:04:18.460Z,0
2017-01-26T06:04:44.022Z,0
2017-01-26T06:05:09.709Z,0
2017-01-26T06:05:35.268Z,0
2017-01-26T06:06:00.828Z,0
2017-01-26T06:06:26.394Z,0
2017-01-26T06:06:52.017Z,0
2017-01-26T06:07:17.578Z,0
2017-01-26T06:07:43.335Z,0
2017-01-26T06:08:08.905Z,20
2017-01-26T06:08:34.493Z,0
2017-01-26T06:09:00.109Z,0
2017-01-26T06:09:25.723Z,0
2017-01-26T06:09:51.278Z,0
2017-01-26T06:10:16.894Z,0
2017-01-26T06:11:40.908Z,0
2017-01-26T06:12:06.471Z,0
2017-01-26T06:12:32.047Z,0
2017-01-26T06:12:57.618Z,0
2017-01-26T06:13:23.256Z,0
2017-01-26T06:13:48.826Z,0
2017-01-26T06:14:14.379Z,0
2017-01-26T06:14:39.949Z,0
2017-01-26T06:15:05.632Z,0
2017-01-26T06:15:31.203Z,0
2017-01-26T06:15:56.762Z,0
2017-01-26T06:16:22.330Z,0
2017-01-26T06:16:48.008Z,0
2017-01-26T06:17:13.585Z,0
2017-01-26T06:17:39.181Z,0
2017-01-26T06:18:04.763Z,0
2017-01-26T06:18:30.341Z,0
2017-01-26T06:18:55.907Z,0
2017-01-26T06:19:21.636Z,0
2017-01-26T06:19:47.268Z,0
2017-01-26T06:20:12.823Z,0
2017-01-26T06:20:38.395Z,0
2017-01-26T06:21:03.992Z,0
2017-01-26T06:21:29.556Z,0
2017-01-26T06:21:55.115Z,0
2017-01-26T06:22:20.686Z,0
2017-01-26T06:22:46.272Z,0
2017-01-26T06:23:11.837Z,0
2017-01-26T06:23:37.416Z,0
2017-01-26T06:24:02.965Z,0
2017-01-26T06:24:28.614Z,0
2017-01-26T06:24:54.165Z,0
2017-01-26T06:25:19.735Z,0
2017-01-26T06:25:45.393Z,0
2017-01-26T06:26:10.956Z,0
2017-01-26T06:26:36.510Z,0
2017-01-26T06:27:02.074Z,0
2017-01-26T06:27:27.646Z,0
2017-01-26T06:27:53.231Z,0
2017-01-26T06:28:18.816Z,0
2017-01-26T06:28:44.376Z,0
2017-01-26T06:29:09.940Z,0
2017-01-26T06:29:35.601Z,0
2017-01-26T06:30:01.168Z,0
2017-01-26T06:30:26.727Z,0
2017-01-26T06:30:52.310Z,0
2017-01-26T06:31:17.882Z,0
2017-01-26T06:31:43.456Z,0
2017-01-26T06:32:09.079Z,0
2017-01-26T06:32:34.647Z,0
2017-01-26T06:33:00.226Z,0
2017-01-26T06:33:25.810Z,0
2017-01-26T06:33:51.376Z,0
2017-01-26T06:34:16.957Z,0
2017-01-26T06:34:42.513Z,0
2017-01-26T06:36:49.290Z,0
2017-01-26T06:37:57.611Z,0
2017-01-26T06:38:23.214Z,0
2017-01-26T06:38:48.843Z,0
2017-01-26T06:39:14.951Z,0
2017-01-26T06:39:39.986Z,0
2017-01-26T06:40:05.649Z,0
2017-01-26T06:40:31.294Z,0
2017-01-26T06:40:56.858Z,0
2017-01-26T06:41:22.414Z,0
2017-01-26T06:41:47.981Z,0
2017-01-26T06:42:13.546Z,0
2017-01-26T06:42:39.130Z,0
2017-01-26T06:43:04.807Z,0
2017-01-26T06:43:30.378Z,0
2017-01-26T06:43:55.921Z,0
2017-01-26T06:44:21.507Z,0
2017-01-26T06:44:47.053Z,0
2017-01-26T06:45:12.620Z,0
2017-01-26T06:45:38.198Z,0
2017-01-26T06:46:03.811Z,0
2017-01-26T06:46:29.376Z,0
2017-01-26T06:46:55.035Z,0
2017-01-26T06:47:20.610Z,0
2017-01-26T06:47:46.178Z,0
2017-01-26T06:48:11.831Z,0
2017-01-26T06:48:37.417Z,0
2017-01-26T06:49:03.038Z,0
2017-01-26T06:49:28.627Z,0
2017-01-26T06:49:54.197Z,0
2017-01-26T06:50:19.775Z,0
2017-01-26T06:50:45.442Z,0
2017-01-26T06:51:11.029Z,0
2017-01-26T06:51:36.600Z,0
2017-01-26T06:52:02.188Z,0
2017-01-26T06:52:27.744Z,0
2017-01-26T06:52:53.304Z,0
2017-01-26T06:53:18.867Z,0
2017-01-26T06:53:44.419Z,0
2017-01-26T06:54:09.978Z,0
2017-01-26T06:54:35.585Z,0
2017-01-26T06:55:01.138Z,0
2017-01-26T06:55:26.702Z,4
2017-01-26T06:55:52.264Z,4
2017-01-26T06:56:18.006Z,4
2017-01-26T06:56:43.589Z,4
2017-01-26T06:57:09.190Z,0
2017-01-26T06:57:34.809Z,0
2017-01-26T06:58:00.364Z,0
2017-01-26T06:58:25.925Z,0
2017-01-26T06:58:51.589Z,4
2017-01-26T06:59:17.180Z,4
2017-01-26T06:59:42.800Z,4
2017-01-26T07:00:08.390Z,4
2017-01-26T07:01:12.105Z,4
2017-01-26T07:01:37.686Z,4
2017-01-26T07:02:03.269Z,4
2017-01-26T07:02:28.859Z,4
2017-01-26T07:02:54.442Z,4
2017-01-26T07:03:19.984Z,4
2017-01-26T07:03:45.868Z,8
2017-01-26T07:04:11.532Z,8
2017-01-26T07:04:37.093Z,4
2017-01-26T07:05:02.655Z,4
2017-01-26T07:05:28.234Z,8
2017-01-26T07:05:53.808Z,8
2017-01-26T07:06:19.394Z,8
2017-01-26T07:06:44.943Z,8
2017-01-26T07:07:10.501Z,8
2017-01-26T07:07:36.058Z,8
2017-01-26T07:08:01.663Z,8
2017-01-26T07:08:27.239Z,12
2017-01-26T07:08:52.808Z,12
2017-01-26T07:09:18.367Z,8
2017-01-26T07:09:43.962Z,12
2017-01-26T07:10:09.529Z,12
2017-01-26T07:10:35.090Z,16
2017-01-26T07:11:00.758Z,12
2017-01-26T07:11:26.336Z,16
2017-01-26T07:11:51.896Z,16
2017-01-26T07:12:17.468Z,16
2017-01-26T07:12:43.047Z,16
2017-01-26T07:13:08.665Z,16
2017-01-26T07:13:34.244Z,20
2017-01-26T07:13:59.804Z,20
2017-01-26T07:14:25.393Z,20
2017-01-26T07:14:50.968Z,20
2017-01-26T07:15:16.522Z,20
2017-01-26T07:15:42.079Z,24
2017-01-26T07:16:07.637Z,20
2017-01-26T07:16:33.199Z,24
2017-01-26T07:16:58.836Z,28
2017-01-26T07:17:24.396Z,24
2017-01-26T07:17:49.947Z,28
2017-01-26T07:18:15.524Z,28
2017-01-26T07:18:41.082Z,28
2017-01-26T07:19:06.681Z,28
2017-01-26T07:19:32.205Z,32
2017-01-26T07:19:57.767Z,32
2017-01-26T07:20:23.392Z,32
2017-01-26T07:20:48.969Z,32
2017-01-26T07:21:14.521Z,36
2017-01-26T07:21:40.090Z,32
2017-01-26T07:22:05.827Z,36
2017-01-26T07:22:31.419Z,36
2017-01-26T07:22:56.968Z,40
2017-01-26T07:23:22.608Z,40
2017-01-26T07:23:48.201Z,44
2017-01-26T07:24:13.789Z,44
2017-01-26T07:24:39.361Z,44
2017-01-26T07:25:04.994Z,48
2017-01-26T07:25:30.556Z,48
2017-01-26T07:25:56.114Z,52
2017-01-26T07:26:21.669Z,52
2017-01-26T07:26:47.238Z,52
2017-01-26T07:27:12.787Z,56
2017-01-26T07:27:38.364Z,56
2017-01-26T07:28:03.937Z,60
2017-01-26T07:28:29.558Z,60
2017-01-26T07:28:55.135Z,60
2017-01-26T07:29:20.707Z,64
2017-01-26T07:29:46.362Z,64
2017-01-26T07:30:12.004Z,68
2017-01-26T07:30:37.579Z,68
2017-01-26T07:31:03.181Z,72
2017-01-26T07:31:28.808Z,72
2017-01-26T07:31:54.370Z,76
2017-01-26T07:32:19.932Z,76
2017-01-26T07:32:45.572Z,80
2017-01-26T07:33:11.128Z,80
2017-01-26T07:33:36.681Z,84
2017-01-26T07:34:02.317Z,84
2017-01-26T07:34:28.026Z,84
2017-01-26T07:34:53.601Z,84
2017-01-26T07:35:19.184Z,88
2017-01-26T07:35:44.789Z,88
2017-01-26T07:36:10.351Z,92
2017-01-26T07:36:35.922Z,92
2017-01-26T07:37:01.569Z,96
2017-01-26T07:37:27.139Z,100
2017-01-26T07:37:52.709Z,100
2017-01-26T07:38:18.290Z,100
2017-01-26T07:38:43.842Z,104
2017-01-26T07:39:09.416Z,104
2017-01-26T07:39:34.977Z,108
2017-01-26T07:40:00.543Z,108
2017-01-26T07:40:26.172Z,112
2017-01-26T07:40:51.800Z,112
2017-01-26T07:41:17.363Z,112
2017-01-26T07:41:42.947Z,116
2017-01-26T07:42:08.599Z,120
2017-01-26T07:42:34.175Z,120
2017-01-26T07:42:59.736Z,124
2017-01-26T07:43:25.312Z,124
2017-01-26T07:43:50.999Z,128
2017-01-26T07:44:16.568Z,128
2017-01-26T07:44:42.118Z,132
2017-01-26T07:45:07.797Z,132
2017-01-26T07:45:33.353Z,136
2017-01-26T07:45:58.919Z,140
2017-01-26T07:46:24.600Z,140
2017-01-26T07:46:50.159Z,144
2017-01-26T07:47:15.715Z,148
2017-01-26T07:47:41.273Z,148
2017-01-26T07:48:06.838Z,152
2017-01-26T07:48:32.404Z,156
2017-01-26T07:48:57.988Z,160
2017-01-26T07:49:23.563Z,164
2017-01-26T07:49:49.128Z,168
2017-01-26T07:50:14.756Z,164
2017-01-26T07:50:40.353Z,168
2017-01-26T07:51:05.937Z,176
2017-01-26T07:51:31.528Z,176
2017-01-26T07:51:57.201Z,180
2017-01-26T07:52:22.768Z,188
2017-01-26T07:52:48.389Z,188
2017-01-26T07:53:14.048Z,192
2017-01-26T07:53:39.599Z,192
2017-01-26T07:54:05.184Z,192
2017-01-26T07:54:30.744Z,196
2017-01-26T07:54:56.310Z,200
2017-01-26T07:55:21.899Z,204
2017-01-26T07:55:47.622Z,208
2017-01-26T07:56:13.174Z,212
2017-01-26T07:56:38.825Z,216
2017-01-26T07:57:04.389Z,220
2017-01-26T07:57:29.953Z,224
2017-01-26T07:57:55.507Z,228
2017-01-26T07:58:21.075Z,228
2017-01-26T07:58:46.651Z,232
2017-01-26T07:59:12.207Z,236
2017-01-26T07:59:37.889Z,240
2017-01-26T08:00:03.554Z,240
2017-01-26T08:00:29.230Z,252
2017-01-26T08:00:54.790Z,256
2017-01-26T08:01:20.429Z,264
2017-01-26T08:01:46.023Z,268
2017-01-26T08:02:11.690Z,272
2017-01-26T08:02:37.243Z,280
2017-01-26T08:03:02.829Z,284
2017-01-26T08:03:28.391Z,296
2017-01-26T08:03:53.951Z,300
2017-01-26T08:04:19.630Z,300
2017-01-26T08:04:45.231Z,304
2017-01-26T08:05:10.793Z,308
2017-01-26T08:05:36.486Z,316
2017-01-26T08:06:02.062Z,324
2017-01-26T08:06:27.641Z,328
2017-01-26T08:06:53.196Z,332
2017-01-26T08:07:18.830Z,332
2017-01-26T08:07:44.398Z,340
2017-01-26T08:08:09.963Z,340
2017-01-26T08:08:35.572Z,348
2017-01-26T08:09:01.132Z,352
2017-01-26T08:09:26.695Z,356
2017-01-26T08:09:52.249Z,364
2017-01-26T08:10:17.838Z,368
2017-01-26T08:10:43.452Z,372
2017-01-26T08:11:09.012Z,384
2017-01-26T08:11:34.693Z,392
2017-01-26T08:12:00.254Z,396
2017-01-26T08:12:25.883Z,400
2017-01-26T08:12:51.430Z,404
2017-01-26T08:13:17.055Z,408
2017-01-26T08:13:42.621Z,420
2017-01-26T08:14:08.183Z,428
2017-01-26T08:14:33.766Z,436
2017-01-26T08:14:59.325Z,436
2017-01-26T08:15:24.977Z,440
2017-01-26T08:15:50.558Z,444
2017-01-26T08:16:16.130Z,452
2017-01-26T08:16:41.832Z,460
2017-01-26T08:17:07.392Z,464
2017-01-26T08:17:32.956Z,472
2017-01-26T08:17:58.508Z,476
2017-01-26T08:18:24.090Z,488
2017-01-26T08:18:49.658Z,492
2017-01-26T08:19:15.207Z,496
2017-01-26T08:19:40.787Z,500
2017-01-26T08:20:06.366Z,508
2017-01-26T08:20:32.038Z,508
2017-01-26T08:20:57.602Z,512
2017-01-26T08:21:23.186Z,512
2017-01-26T08:21:48.762Z,516
2017-01-26T08:22:14.336Z,516
2017-01-26T08:22:40.477Z,520
2017-01-26T08:23:05.464Z,524
2017-01-26T08:23:31.018Z,528
2017-01-26T08:23:56.580Z,532
2017-01-26T08:24:22.196Z,536
2017-01-26T08:24:47.762Z,540
2017-01-26T08:25:13.328Z,544
2017-01-26T08:25:38.897Z,548
2017-01-26T08:26:04.459Z,552
2017-01-26T08:26:30.053Z,548
2017-01-26T08:26:55.610Z,552
2017-01-26T08:27:21.173Z,560
2017-01-26T08:27:46.724Z,560
2017-01-26T08:28:12.294Z,568
2017-01-26T08:28:37.897Z,576
2017-01-26T08:29:03.570Z,580
2017-01-26T08:29:29.207Z,580
2017-01-26T08:29:54.851Z,580
2017-01-26T08:30:20.433Z,584
2017-01-26T08:30:45.995Z,588
2017-01-26T08:31:11.586Z,592
2017-01-26T08:31:37.137Z,600
2017-01-26T08:32:02.794Z,600
2017-01-26T08:32:28.362Z,608
2017-01-26T08:32:53.945Z,604
2017-01-26T08:33:19.504Z,604
2017-01-26T08:33:45.075Z,608
2017-01-26T08:34:10.633Z,612
2017-01-26T08:34:36.205Z,616
2017-01-26T08:35:01.779Z,620
2017-01-26T08:35:27.354Z,624
2017-01-26T08:35:52.908Z,624
2017-01-26T08:36:18.480Z,632
2017-01-26T08:36:44.048Z,632
2017-01-26T08:37:09.759Z,636
2017-01-26T08:37:35.309Z,636
2017-01-26T08:38:00.875Z,640
2017-01-26T08:38:26.445Z,644
2017-01-26T08:38:52.186Z,652
2017-01-26T08:39:17.764Z,652
2017-01-26T08:39:43.398Z,656
2017-01-26T08:40:08.990Z,660
2017-01-26T08:40:34.541Z,656
2017-01-26T08:41:00.148Z,656
2017-01-26T08:41:25.727Z,660
2017-01-26T08:41:51.288Z,664
2017-01-26T08:42:16.879Z,664
2017-01-26T08:42:42.487Z,672
2017-01-26T08:43:08.049Z,676
2017-01-26T08:43:33.610Z,676
2017-01-26T08:43:59.178Z,676
2017-01-26T08:44:24.736Z,680
2017-01-26T08:44:50.331Z,684
2017-01-26T08:45:15.929Z,688
2017-01-26T08:45:41.507Z,688
2017-01-26T08:46:07.090Z,688
2017-01-26T08:46:32.667Z,692
2017-01-26T08:46:58.236Z,692
2017-01-26T08:47:23.798Z,692
2017-01-26T08:47:49.354Z,692
2017-01-26T08:48:14.916Z,696
2017-01-26T08:48:40.495Z,700
2017-01-26T08:49:06.039Z,700
2017-01-26T08:49:31.599Z,700
2017-01-26T08:49:57.178Z,704
2017-01-26T08:50:22.745Z,708
2017-01-26T08:50:48.319Z,712
2017-01-26T08:51:13.872Z,712
2017-01-26T08:51:39.423Z,716
2017-01-26T08:52:05.050Z,720
2017-01-26T08:52:30.704Z,720
2017-01-26T08:52:56.285Z,724
2017-01-26T08:53:21.843Z,724
2017-01-26T08:53:47.552Z,728
2017-01-26T08:54:13.113Z,728
2017-01-26T08:54:38.678Z,728
2017-01-26T08:55:04.233Z,728
2017-01-26T08:55:29.891Z,732
2017-01-26T08:55:55.460Z,732
2017-01-26T08:56:21.997Z,736
2017-01-26T08:56:46.650Z,736
2017-01-26T08:57:12.386Z,740
2017-01-26T08:57:37.950Z,744
2017-01-26T08:58:03.507Z,748
2017-01-26T08:58:29.378Z,748
2017-01-26T08:58:55.523Z,752
2017-01-26T08:59:21.097Z,756
2017-01-26T08:59:46.660Z,752
2017-01-26T09:00:12.248Z,756
2017-01-26T09:00:37.837Z,756
2017-01-26T09:01:03.404Z,760
2017-01-26T09:01:28.977Z,764
2017-01-26T09:01:54.536Z,768
2017-01-26T09:02:20.128Z,768
2017-01-26T09:02:45.713Z,768
2017-01-26T09:03:11.309Z,768
2017-01-26T09:03:36.871Z,772
2017-01-26T09:04:02.424Z,768
2017-01-26T09:04:27.992Z,772
2017-01-26T09:04:53.574Z,776
2017-01-26T09:05:19.147Z,780
2017-01-26T09:05:44.707Z,780
2017-01-26T09:06:10.342Z,784
2017-01-26T09:06:35.962Z,784
2017-01-26T09:07:01.542Z,788
2017-01-26T09:07:27.118Z,788
2017-01-26T09:07:52.819Z,792
2017-01-26T09:08:18.397Z,792
2017-01-26T09:08:43.949Z,792
2017-01-26T09:09:09.507Z,796
2017-01-26T09:09:35.197Z,796
2017-01-26T09:10:00.752Z,796
2017-01-26T09:10:26.336Z,800
2017-01-26T09:10:51.945Z,800
2017-01-26T09:11:17.504Z,804
2017-01-26T09:11:43.112Z,804
2017-01-26T09:12:08.666Z,804
2017-01-26T09:12:34.218Z,808
2017-01-26T09:12:59.825Z,808
2017-01-26T09:13:25.396Z,812
2017-01-26T09:13:50.954Z,812
2017-01-26T09:14:16.533Z,812
2017-01-26T09:14:42.132Z,816
2017-01-26T09:15:07.699Z,816
2017-01-26T09:15:33.275Z,816
2017-01-26T09:15:58.949Z,820
2017-01-26T09:16:24.531Z,816
2017-01-26T09:16:50.087Z,820
2017-01-26T09:17:15.645Z,820
2017-01-26T09:17:41.214Z,824
2017-01-26T09:18:06.760Z,824
2017-01-26T09:18:32.336Z,828
2017-01-26T09:18:57.917Z,828
2017-01-26T09:19:23.567Z,824
2017-01-26T09:19:49.126Z,828
2017-01-26T09:20:14.715Z,828
2017-01-26T09:20:40.298Z,832
2017-01-26T09:21:05.905Z,836
2017-01-26T09:21:31.497Z,840
2017-01-26T09:21:57.058Z,840
2017-01-26T09:22:22.643Z,844
2017-01-26T09:22:48.355Z,844
2017-01-26T09:23:13.935Z,844
2017-01-26T09:23:40.511Z,840
2017-01-26T09:24:06.181Z,840
2017-01-26T09:24:31.805Z,844
2017-01-26T09:24:57.356Z,840
2017-01-26T09:25:22.926Z,844
2017-01-26T09:25:48.506Z,848
2017-01-26T09:26:14.200Z,848
2017-01-26T09:26:39.784Z,852
2017-01-26T09:27:05.417Z,852
2017-01-26T09:27:30.982Z,852
2017-01-26T09:27:56.550Z,848
2017-01-26T09:28:22.128Z,848
2017-01-26T09:28:47.793Z,848
2017-01-26T09:29:13.377Z,848
2017-01-26T09:29:38.941Z,848
2017-01-26T09:30:04.611Z,852
2017-01-26T09:30:30.209Z,848
2017-01-26T09:30:55.753Z,844
2017-01-26T09:31:21.416Z,848
2017-01-26T09:31:47.027Z,852
2017-01-26T09:32:12.598Z,848
2017-01-26T09:32:38.158Z,848
2017-01-26T09:33:03.805Z,848
2017-01-26T09:33:29.371Z,852
2017-01-26T09:33:54.948Z,852
2017-01-26T09:34:20.589Z,856
2017-01-26T09:34:46.226Z,852
2017-01-26T09:35:11.792Z,852
2017-01-26T09:35:37.459Z,852
2017-01-26T09:36:03.069Z,852
2017-01-26T09:36:28.648Z,852
2017-01-26T09:36:54.228Z,852
2017-01-26T09:37:19.875Z,852
2017-01-26T09:37:45.376Z,856
2017-01-26T09:38:10.961Z,860
2017-01-26T09:38:37.347Z,860
2017-01-26T09:39:02.967Z,860
2017-01-26T09:39:28.526Z,860
2017-01-26T09:39:54.085Z,860
2017-01-26T09:40:19.642Z,864
2017-01-26T09:40:45.304Z,864
2017-01-26T09:41:10.864Z,864
2017-01-26T09:41:36.424Z,864
2017-01-26T09:42:02.002Z,864
2017-01-26T09:42:27.573Z,864
2017-01-26T09:42:53.126Z,860
2017-01-26T09:43:18.690Z,868
2017-01-26T09:43:44.263Z,868
2017-01-26T09:44:09.920Z,864
2017-01-26T09:44:35.484Z,868
2017-01-26T09:45:01.067Z,868
2017-01-26T09:45:26.726Z,872
2017-01-26T09:45:52.316Z,872
2017-01-26T09:46:17.897Z,872
2017-01-26T09:46:43.512Z,872
2017-01-26T09:47:09.138Z,872
2017-01-26T09:47:34.718Z,876
2017-01-26T09:48:00.301Z,872
2017-01-26T09:48:25.859Z,868
2017-01-26T09:48:51.449Z,876
2017-01-26T09:49:17.116Z,876
2017-01-26T09:49:42.744Z,876
2017-01-26T09:50:08.300Z,876
2017-01-26T09:50:33.863Z,876
2017-01-26T09:50:59.588Z,876
2017-01-26T09:51:25.164Z,872
2017-01-26T09:51:50.736Z,876
2017-01-26T09:52:16.380Z,876
2017-01-26T09:52:41.962Z,876
2017-01-26T09:53:07.526Z,880
2017-01-26T09:53:33.087Z,884
2017-01-26T09:53:58.759Z,888
2017-01-26T09:54:24.387Z,888
2017-01-26T09:54:49.970Z,884
2017-01-26T09:55:15.577Z,888
2017-01-26T09:55:41.222Z,892
2017-01-26T09:56:06.764Z,888
2017-01-26T09:56:32.388Z,884
2017-01-26T09:56:58.035Z,884
2017-01-26T09:57:23.592Z,888
2017-01-26T09:57:49.197Z,884
2017-01-26T09:58:14.760Z,888
2017-01-26T09:58:40.314Z,884
2017-01-26T09:59:05.882Z,892
2017-01-26T09:59:31.596Z,884
2017-01-26T09:59:57.162Z,880
2017-01-26T10:00:22.727Z,884
2017-01-26T10:00:48.441Z,884
2017-01-26T10:01:13.997Z,888
2017-01-26T10:01:39.565Z,892
2017-01-26T10:02:05.159Z,892
2017-01-26T10:02:30.815Z,896
2017-01-26T10:02:56.407Z,892
2017-01-26T10:03:21.978Z,900
2017-01-26T10:03:47.646Z,900
2017-01-26T10:04:13.215Z,900
2017-01-26T10:04:38.777Z,900
2017-01-26T10:05:04.466Z,888
2017-01-26T10:05:30.068Z,876
2017-01-26T10:05:55.663Z,876
2017-01-26T10:06:21.232Z,892
2017-01-26T10:06:46.794Z,896
2017-01-26T10:07:12.377Z,896
2017-01-26T10:07:37.939Z,900
2017-01-26T10:08:03.611Z,900
2017-01-26T10:08:29.191Z,900
2017-01-26T10:08:54.750Z,900
2017-01-26T10:09:20.395Z,904
2017-01-26T10:09:45.959Z,908
2017-01-26T10:10:11.507Z,908